createdAt,value
2018-12-11T00:00:56.415Z,1.00
2018-12-11T00:03:23.883Z,1.10
2018-12-11T00:05:51.328Z,1.00
2018-12-11T00:10:46.240Z,1.00
2018-12-11T00:13:13.683Z,1.00
2018-12-11T00:15:41.157Z,0.90
2018-12-11T00:20:36.049Z,0.90
2018-12-11T00:23:03.547Z,0.90
2018-12-11T00:27:58.439Z,0.70
2018-12-11T00:32:53.346Z,0.70
2018-12-11T00:35:20.832Z,0.80
2018-12-11T00:37:48.304Z,0.80
2018-12-11T00:40:15.759Z,0.60
2018-12-11T00:42:43.204Z,0.50
2018-12-11T00:45:10.676Z,0.50
2018-12-11T00:50:06.712Z,0.50
2018-12-11T00:52:34.156Z,0.60
2018-12-11T00:57:29.080Z,0.70
2018-12-11T00:59:56.516Z,0.70
2018-12-11T01:02:24.044Z,0.70
2018-12-11T01:04:51.496Z,0.80
2018-12-11T01:07:18.956Z,0.70
2018-12-11T01:09:46.455Z,0.70
2018-12-11T01:12:13.911Z,0.70
2018-12-11T01:14:41.364Z,0.70
2018-12-11T01:22:03.867Z,0.70
2018-12-11T01:24:31.310Z,0.70
2018-12-11T01:34:21.145Z,0.60
2018-12-11T01:36:48.588Z,0.60
2018-12-11T01:39:16.036Z,0.60
2018-12-11T01:41:43.507Z,0.60
2018-12-11T01:44:10.940Z,0.60
2018-12-11T01:49:06.028Z,0.60
2018-12-11T01:58:55.804Z,0.70
2018-12-11T02:01:23.267Z,0.60
2018-12-11T02:03:50.951Z,0.70
2018-12-11T02:06:18.387Z,0.80
2018-12-11T02:08:45.897Z,0.80
2018-12-11T02:11:13.311Z,0.80
2018-12-11T02:13:40.788Z,0.80
2018-12-11T02:18:43.467Z,0.80
2018-12-11T02:21:12.296Z,0.80
2018-12-11T02:23:39.967Z,0.80
2018-12-11T02:26:07.435Z,0.80
2018-12-11T02:31:02.365Z,0.90
2018-12-11T02:33:29.814Z,1.00
2018-12-11T02:35:57.288Z,1.00
2018-12-11T02:38:24.779Z,1.10
2018-12-11T02:43:20.008Z,1.10
2018-12-11T02:45:47.449Z,1.10
2018-12-11T02:48:14.884Z,1.00
2018-12-11T02:53:09.887Z,1.00
2018-12-11T03:00:32.382Z,0.90
2018-12-11T03:02:59.806Z,0.80
2018-12-11T03:05:27.379Z,0.80
2018-12-11T03:07:54.817Z,0.80
2018-12-11T03:10:22.306Z,0.80
2018-12-11T03:12:49.768Z,0.90
2018-12-11T03:15:17.244Z,0.90
2018-12-11T03:17:44.664Z,0.90
2018-12-11T03:20:12.152Z,0.80
2018-12-11T03:22:39.584Z,0.80
2018-12-11T03:25:07.051Z,0.80
2018-12-11T03:30:01.959Z,0.80
2018-12-11T03:34:56.937Z,0.80
2018-12-11T03:39:51.848Z,0.80
2018-12-11T03:42:19.320Z,0.80
2018-12-11T03:44:46.759Z,0.80
2018-12-11T03:49:41.645Z,0.70
2018-12-11T03:52:09.092Z,0.70
2018-12-11T03:57:03.985Z,0.70
2018-12-11T03:59:31.443Z,0.70
2018-12-11T04:04:26.364Z,0.70
2018-12-11T04:06:53.858Z,0.70
2018-12-11T04:09:21.296Z,0.70
2018-12-11T04:11:48.721Z,0.70
2018-12-11T04:16:43.667Z,0.70
2018-12-11T04:19:11.196Z,0.70
2018-12-11T04:24:06.088Z,0.80
2018-12-11T04:26:33.531Z,0.80
2018-12-11T04:31:28.449Z,0.90
2018-12-11T04:36:23.437Z,0.80
2018-12-11T04:38:50.867Z,0.70
2018-12-11T04:41:18.335Z,0.70
2018-12-11T04:43:45.771Z,0.60
2018-12-11T04:46:13.261Z,0.60
2018-12-11T04:48:40.778Z,0.50
2018-12-11T04:53:35.746Z,0.50
2018-12-11T04:56:03.212Z,0.40
2018-12-11T05:00:58.096Z,0.40
2018-12-11T05:03:25.545Z,0.40
2018-12-11T05:05:53.015Z,0.40
2018-12-11T05:08:20.449Z,0.40
2018-12-11T05:10:47.919Z,0.50
2018-12-11T05:13:15.383Z,0.50
2018-12-11T05:15:42.855Z,0.50
2018-12-11T05:20:37.755Z,0.50
2018-12-11T05:23:05.217Z,0.50
2018-12-11T05:28:00.119Z,0.60
2018-12-11T05:30:27.555Z,0.50
2018-12-11T05:35:22.463Z,0.50
2018-12-11T05:37:49.960Z,0.50
2018-12-11T05:40:17.403Z,0.50
2018-12-11T05:42:44.846Z,0.50
2018-12-11T05:47:39.727Z,0.50
2018-12-11T05:50:07.216Z,0.50
2018-12-11T05:55:02.196Z,0.50
2018-12-11T05:57:29.639Z,0.60
2018-12-11T05:59:57.084Z,0.50
2018-12-11T06:02:24.520Z,0.60
2018-12-11T06:04:51.980Z,0.60
2018-12-11T06:07:20.243Z,0.60
2018-12-11T06:09:47.712Z,0.70
2018-12-11T06:12:15.175Z,0.70
2018-12-11T06:14:42.625Z,0.80
2018-12-11T06:19:37.512Z,0.90
2018-12-11T06:22:04.994Z,0.90
2018-12-11T06:26:59.914Z,1.00
2018-12-11T06:29:27.347Z,1.00
2018-12-11T06:34:22.267Z,1.00
2018-12-11T06:36:49.739Z,1.10
2018-12-11T06:39:17.169Z,1.10
2018-12-11T06:41:44.612Z,1.10
2018-12-11T06:46:39.513Z,1.10
2018-12-11T06:49:06.953Z,1.10
2018-12-11T06:54:01.847Z,1.10
2018-12-11T06:56:29.283Z,1.10
2018-12-11T07:01:24.171Z,1.10
2018-12-11T07:03:51.628Z,1.00
2018-12-11T07:06:19.100Z,1.00
2018-12-11T07:08:46.559Z,1.00
2018-12-11T07:11:14.001Z,1.00
2018-12-11T07:13:41.464Z,1.00
2018-12-11T07:16:08.912Z,1.00
2018-12-11T07:23:37.963Z,1.00
2018-12-11T07:26:05.436Z,1.00
2018-12-11T07:31:00.437Z,1.00
2018-12-11T07:33:27.920Z,1.00
2018-12-11T07:35:55.369Z,1.10
2018-12-11T07:38:22.808Z,1.10
2018-12-11T07:40:50.251Z,1.20
2018-12-11T07:43:17.692Z,1.20
2018-12-11T07:45:45.135Z,1.30
2018-12-11T07:50:40.027Z,1.40
2018-12-11T07:53:07.465Z,1.50
2018-12-11T07:58:02.380Z,1.60
2018-12-11T08:00:29.870Z,1.60
2018-12-11T08:05:24.755Z,1.60
2018-12-11T08:07:52.193Z,1.60
2018-12-11T08:12:47.102Z,1.70
2018-12-11T08:17:42.003Z,1.80
2018-12-11T08:20:09.479Z,1.80
2018-12-11T08:25:04.423Z,1.80
2018-12-11T08:27:31.911Z,1.90
2018-12-11T08:29:59.348Z,1.90
2018-12-11T08:32:26.790Z,1.90
2018-12-11T08:34:54.255Z,1.90
2018-12-11T08:37:21.695Z,1.90
2018-12-11T08:39:49.129Z,2.00
2018-12-11T08:42:16.575Z,2.10
2018-12-11T08:44:44.019Z,2.10
2018-12-11T08:47:11.467Z,2.20
2018-12-11T08:52:06.346Z,2.10
2018-12-11T08:54:33.787Z,2.20
2018-12-11T08:57:01.245Z,2.20
2018-12-11T08:59:28.692Z,2.20
2018-12-11T09:01:56.165Z,2.30
2018-12-11T09:06:51.029Z,2.30
2018-12-11T09:09:18.463Z,2.30
2018-12-11T09:14:13.366Z,2.30
2018-12-11T09:16:40.807Z,2.30
2018-12-11T09:21:35.780Z,2.40
2018-12-11T09:24:03.249Z,2.30
2018-12-11T09:28:58.233Z,2.50
2018-12-11T09:31:25.699Z,2.50
2018-12-11T09:33:53.141Z,2.60
2018-12-11T09:36:20.611Z,2.70
2018-12-11T09:38:48.055Z,2.80
2018-12-11T09:41:15.551Z,2.80
2018-12-11T09:43:43.040Z,2.90
2018-12-11T09:48:37.923Z,2.80
2018-12-11T09:51:05.415Z,2.70
2018-12-11T09:56:00.291Z,2.70
2018-12-11T09:58:27.727Z,2.80
2018-12-11T10:00:55.168Z,2.80
2018-12-11T10:03:22.599Z,2.80
2018-12-11T10:05:50.035Z,2.80
2018-12-11T10:08:17.468Z,2.80
2018-12-11T10:10:44.935Z,2.70
2018-12-11T10:13:12.402Z,2.80
2018-12-11T10:15:39.839Z,2.70
2018-12-11T10:18:07.284Z,2.70
2018-12-11T10:23:02.626Z,2.70
2018-12-11T10:25:30.089Z,2.60
2018-12-11T10:30:26.932Z,2.60
2018-12-11T10:35:21.798Z,2.70
2018-12-11T10:37:49.267Z,2.80
2018-12-11T10:40:16.730Z,2.90
2018-12-11T10:45:11.607Z,3.10
2018-12-11T10:52:33.971Z,3.50
2018-12-11T10:55:01.407Z,3.50
2018-12-11T10:59:56.325Z,3.50
2018-12-11T11:02:25.689Z,3.50
2018-12-11T11:04:53.119Z,3.40
2018-12-11T11:07:20.601Z,3.40
2018-12-11T11:09:48.062Z,3.30
2018-12-11T11:12:15.500Z,3.20
2018-12-11T11:14:43.022Z,3.10
2018-12-11T11:19:37.976Z,3.10
2018-12-11T11:22:05.537Z,3.10
2018-12-11T11:24:32.980Z,3.20
2018-12-11T11:27:00.414Z,3.30
2018-12-11T11:29:27.858Z,3.40
2018-12-11T11:31:55.305Z,3.40
2018-12-11T11:34:22.773Z,3.50
2018-12-11T11:36:50.216Z,3.60
2018-12-11T11:39:17.664Z,3.70
2018-12-11T11:41:45.212Z,3.70
2018-12-11T11:44:12.672Z,3.60
2018-12-11T11:46:40.117Z,3.60
2018-12-11T11:56:30.203Z,3.50
2018-12-11T11:58:57.657Z,3.50
2018-12-11T12:01:25.117Z,3.50
2018-12-11T12:03:52.565Z,3.50
2018-12-11T12:06:20.005Z,3.40
2018-12-11T12:11:14.951Z,3.40
2018-12-11T12:16:09.838Z,3.50
2018-12-11T12:18:37.277Z,3.50
2018-12-11T12:23:32.222Z,3.60
2018-12-11T12:25:59.671Z,3.70
2018-12-11T12:30:55.745Z,3.60
2018-12-11T12:33:23.202Z,3.60
2018-12-11T12:35:50.635Z,3.60
2018-12-11T12:38:18.113Z,3.60
2018-12-11T12:40:45.552Z,3.60
2018-12-11T12:43:12.993Z,3.60
2018-12-11T12:48:07.872Z,3.60
2018-12-11T12:50:35.320Z,3.70
2018-12-11T12:55:31.489Z,3.70
2018-12-11T12:57:59.146Z,3.70
2018-12-11T13:00:26.583Z,3.80
2018-12-11T13:02:54.093Z,3.80
2018-12-11T13:05:21.555Z,3.90
2018-12-11T13:07:49.056Z,3.80
2018-12-11T13:10:16.496Z,3.80
2018-12-11T13:12:43.975Z,3.80
2018-12-11T13:15:11.492Z,3.70
2018-12-11T13:17:41.253Z,3.70
2018-12-11T13:22:36.138Z,3.60
2018-12-11T13:25:04.120Z,3.50
2018-12-11T13:27:31.565Z,3.50
2018-12-11T13:32:26.479Z,3.40
2018-12-11T13:34:53.935Z,3.40
2018-12-11T13:37:21.495Z,3.30
2018-12-11T13:39:48.953Z,3.40
2018-12-11T13:42:16.394Z,3.40
2018-12-11T13:44:43.833Z,3.50
2018-12-11T13:49:38.869Z,3.50
2018-12-11T13:54:33.813Z,3.40
2018-12-11T13:57:01.351Z,3.40
2018-12-11T13:59:28.812Z,3.40
2018-12-11T14:01:56.252Z,3.40
2018-12-11T14:04:23.716Z,3.40
2018-12-11T14:06:51.188Z,3.40
2018-12-11T14:09:24.396Z,3.30
2018-12-11T14:11:51.859Z,3.30
2018-12-11T14:21:41.652Z,3.30
2018-12-11T14:24:09.143Z,3.20
2018-12-11T14:26:36.639Z,3.30
2018-12-11T14:29:04.134Z,3.20
2018-12-11T14:31:31.625Z,3.20
2018-12-11T14:33:59.158Z,3.20
2018-12-11T14:36:26.600Z,3.20
2018-12-11T14:38:54.044Z,3.10
2018-12-11T14:41:21.643Z,3.10
2018-12-11T14:43:49.087Z,3.10
2018-12-11T14:48:43.987Z,3.00
2018-12-11T14:51:11.419Z,3.00
2018-12-11T14:56:06.314Z,3.00
2018-12-11T14:58:33.755Z,3.00
2018-12-11T15:01:01.211Z,2.90
2018-12-11T15:03:28.672Z,2.90
2018-12-11T15:05:56.111Z,2.90
2018-12-11T15:08:23.550Z,2.90
2018-12-11T15:10:50.997Z,2.80
2018-12-11T15:15:45.888Z,2.80
2018-12-11T15:18:13.323Z,2.80
2018-12-11T15:23:08.211Z,2.80
2018-12-11T15:25:35.714Z,2.70
2018-12-11T15:28:03.206Z,2.70
2018-12-11T15:30:30.639Z,2.70
2018-12-11T15:32:58.119Z,2.70
2018-12-11T15:35:25.572Z,2.70
2018-12-11T15:37:53.004Z,2.70
2018-12-11T15:40:20.490Z,2.60
2018-12-11T15:42:47.956Z,2.60
2018-12-11T15:45:15.452Z,2.50
2018-12-11T15:47:42.907Z,2.50
2018-12-11T15:52:37.797Z,2.30
2018-12-11T15:55:05.882Z,2.30
2018-12-11T15:57:33.339Z,2.30
2018-12-11T16:00:00.779Z,2.20
2018-12-11T16:02:28.207Z,2.20
2018-12-11T16:04:55.655Z,2.10
2018-12-11T16:07:23.087Z,2.10
2018-12-11T16:12:17.974Z,2.00
2018-12-11T16:17:12.868Z,1.90
2018-12-11T16:22:07.783Z,1.90
2018-12-11T16:24:35.248Z,1.90
2018-12-11T16:29:30.178Z,1.80
2018-12-11T16:31:57.619Z,1.80
2018-12-11T16:34:25.060Z,1.80
2018-12-11T16:36:52.508Z,1.80
2018-12-11T16:39:19.943Z,1.80
2018-12-11T16:41:47.390Z,1.80
2018-12-11T16:44:14.852Z,1.80
2018-12-11T16:49:09.767Z,1.90
2018-12-11T16:51:37.223Z,1.90
2018-12-11T16:56:32.097Z,1.90
2018-12-11T17:01:26.969Z,1.90
2018-12-11T17:03:54.419Z,1.90
2018-12-11T17:06:21.848Z,1.80
2018-12-11T17:11:16.751Z,1.70
2018-12-11T17:13:44.183Z,1.60
2018-12-11T17:16:11.664Z,1.60
2018-12-11T17:18:39.169Z,1.60
2018-12-11T17:23:34.076Z,1.60
2018-12-11T17:30:56.445Z,1.50
2018-12-11T17:33:23.875Z,1.60
2018-12-11T17:35:51.352Z,1.50
2018-12-11T17:38:18.894Z,1.50
2018-12-11T17:40:46.347Z,1.50
2018-12-11T17:43:13.792Z,1.50
2018-12-11T17:45:41.251Z,1.50
2018-12-11T17:53:05.235Z,1.50
2018-12-11T17:58:00.112Z,1.40
2018-12-11T18:00:27.543Z,1.40
2018-12-11T18:05:22.451Z,1.40
2018-12-11T18:07:49.891Z,1.50
2018-12-11T18:10:17.343Z,1.50
2018-12-11T18:12:44.781Z,1.50
2018-12-11T18:17:39.687Z,1.60
2018-12-11T18:20:07.280Z,1.60
2018-12-11T18:25:02.248Z,1.60
2018-12-11T18:27:29.695Z,1.60
2018-12-11T18:34:52.931Z,1.70
2018-12-11T18:37:20.398Z,1.70
2018-12-11T18:39:47.843Z,1.80
2018-12-11T18:42:15.315Z,1.80
2018-12-11T18:44:42.779Z,1.80
2018-12-11T18:52:05.174Z,1.90
2018-12-11T18:57:00.088Z,1.90
2018-12-11T18:59:27.523Z,1.90
2018-12-11T19:01:54.999Z,1.80
2018-12-11T19:04:22.491Z,1.80
2018-12-11T19:06:49.976Z,1.70
2018-12-11T19:09:17.499Z,1.70
2018-12-11T19:11:44.967Z,1.70
2018-12-11T19:16:39.871Z,1.70
2018-12-11T19:19:07.344Z,1.70
2018-12-11T19:24:04.037Z,1.70
2018-12-11T19:28:59.024Z,1.70
2018-12-11T19:31:26.491Z,1.70
2018-12-11T19:33:54.030Z,1.70
2018-12-11T19:36:21.526Z,1.80
2018-12-11T19:41:16.611Z,1.60
2018-12-11T19:43:44.091Z,1.60
2018-12-11T19:46:11.555Z,1.60
2018-12-11T19:48:38.995Z,1.70
2018-12-11T19:53:33.879Z,1.60
2018-12-11T19:56:01.322Z,1.70
2018-12-11T20:00:56.196Z,1.60
2018-12-11T20:03:23.642Z,1.50
2018-12-11T20:05:51.099Z,1.60
2018-12-11T20:08:18.568Z,1.60
2018-12-11T20:10:47.991Z,1.60
2018-12-11T20:13:15.436Z,1.60
2018-12-11T20:15:43.000Z,1.60
2018-12-11T20:20:39.867Z,1.60
2018-12-11T20:23:07.311Z,1.60
2018-12-11T20:32:57.121Z,1.50
2018-12-11T20:35:24.564Z,1.50
2018-12-11T20:37:52.015Z,1.60
2018-12-11T20:40:19.492Z,1.60
2018-12-11T20:42:46.931Z,1.60
2018-12-11T20:47:41.843Z,1.60
2018-12-11T20:50:09.330Z,1.60
2018-12-11T20:55:04.444Z,1.60
2018-12-11T20:57:31.880Z,1.50
2018-12-11T20:59:59.320Z,1.50
2018-12-11T21:02:26.756Z,1.50
2018-12-11T21:04:54.195Z,1.50
2018-12-11T21:07:21.639Z,1.50
2018-12-11T21:09:49.108Z,1.50
2018-12-11T21:12:16.539Z,1.60
2018-12-11T21:17:11.435Z,1.60
2018-12-11T21:19:38.884Z,1.60
2018-12-11T21:24:33.837Z,1.60
2018-12-11T21:29:28.784Z,1.60
2018-12-11T21:31:56.218Z,1.40
2018-12-11T21:34:23.664Z,1.30
2018-12-11T21:36:51.132Z,1.30
2018-12-11T21:41:46.029Z,1.20
2018-12-11T21:44:13.532Z,1.10
2018-12-11T21:46:41.088Z,1.10
2018-12-11T21:51:36.021Z,1.00
2018-12-11T21:54:03.488Z,1.00
2018-12-11T21:58:58.400Z,0.90
2018-12-11T22:01:25.891Z,0.90
2018-12-11T22:03:53.337Z,0.80
2018-12-11T22:06:20.887Z,0.70
2018-12-11T22:13:43.231Z,0.50
2018-12-11T22:16:10.680Z,0.40
2018-12-11T22:21:05.569Z,0.40
2018-12-11T22:23:33.010Z,0.30
2018-12-11T22:28:27.892Z,0.10
2018-12-11T22:30:55.336Z,0.10
2018-12-11T22:33:22.805Z,-0.10
2018-12-11T22:35:50.251Z,-0.10
2018-12-11T22:38:17.728Z,-0.10
2018-12-11T22:40:45.179Z,-0.10
2018-12-11T22:43:12.617Z,-0.10
2018-12-11T22:48:07.505Z,0.00
2018-12-11T22:50:34.957Z,-0.10
2018-12-11T22:55:29.889Z,-0.20
2018-12-11T22:57:57.330Z,-0.20
2018-12-11T23:00:25.026Z,-0.20
2018-12-11T23:02:52.469Z,-0.20
2018-12-11T23:07:47.423Z,-0.30
2018-12-11T23:10:14.873Z,-0.30
2018-12-11T23:12:42.312Z,-0.50
2018-12-11T23:15:09.787Z,-0.50
2018-12-11T23:17:37.261Z,-0.50
2018-12-11T23:20:04.771Z,-0.50
2018-12-11T23:22:32.219Z,-0.60
2018-12-11T23:24:59.816Z,-0.60
2018-12-11T23:27:27.261Z,-0.50
2018-12-11T23:32:22.199Z,-0.50
2018-12-11T23:34:51.292Z,-0.50
2018-12-11T23:37:18.766Z,-0.40
2018-12-11T23:39:46.227Z,-0.50
2018-12-11T23:42:13.684Z,-0.40
2018-12-11T23:44:41.127Z,-0.40
2018-12-11T23:49:36.020Z,-0.70
2018-12-11T23:52:03.518Z,-0.90
2018-12-11T23:56:58.455Z,-0.90
2018-12-11T23:59:29.165Z,-0.90
